Latest METARs, TAFs and NOTAMs for LFPB


---------------------------------------------------------------------------
	(OBSERVATIONS)
LFPB 150400Z AUTO 25011KT 9999 OVC017 06/03 Q0994 NOSIG=
LFPB 150330Z AUTO 25011KT 230V290 9999 OVC017 06/03 Q0994 NOSIG=
LFPB 150300Z AUTO 25013KT 9999 OVC018 06/03 Q0994 TEMPO 22015G25KT
    4000 -SHRA SCT012TCU BKN013=
LFPB 150230Z AUTO 24013KT 9999 OVC019 05/03 Q0994 TEMPO 22015G25KT
    4000 -SHRA SCT012TCU BKN013=
LFPB 150200Z AUTO 22013KT 9999 -RA OVC018 05/03 Q0993 TEMPO 22015G25KT
    4000 -SHRA SCT012TCU BKN013=
LFPB 150130Z AUTO 22013KT 9999 OVC017 05/02 Q0993 TEMPO 22015G25KT
    4000 -SHRA SCT012TCU BKN013=
---------------------------------------------------------------------------
	(FC)
Sorry, FC For LFPB Not Found
---------------------------------------------------------------------------
	(TERMINAL AREA FORECAST)
AMD LFPB 150040Z 1500/1524 22012KT 9999 BKN020
    TEMPO 1500/1504 22015G25KT 4000 -SHRA SCT012TCU BKN013
    TEMPO 1509/1524 SCT010TCU BKN011
    PROB40 TEMPO 1511/1515 27015G25KT 2000 TSRAGS SCT008CB BKN009
    BECMG 1515/1516 31010G20KT
    PROB40 TEMPO 1516/1524 4000 -SHRA SCT008TCU BKN009=
---------------------------------------------------------------------------
	(NOTAMS)


LFPB A4494/17 VORTAC CRL REPLACED BY VOR/DME CRL 109.200MHZ CH29X
    AIP AD 1.5-6 REFERS. 12 OCT 16:17 2017 UNTIL PERM. CREATED:
    12 OCT 16:17 2017

LFPB A4628/17 DUE TO OBSTACLE, OPERATING MINIMA MODIFIED : CAT
    A : 650(500) OCH 494 RVR 1800 CAT B : 670(510) OCH 506 RVR
    1900 CAT C : 670(520) OCH 514 RVR 1900 CAT D : 680(530) OCH
    525 RVR 2000 AD2 LFPB IAC RWY07 GNSS REFERS. 20 OCT 13:16
    2017 UNTIL 31 JAN 17:00 2018. CREATED: 20 OCT 13:16 2017

LFPB A4689/17 TWY W19 CLOSED. 24 OCT 14:29 2017 UNTIL 31 DEC
    23:00 2017. CREATED: 24 OCT 14:29 2017

LFPB A4690/17 APRON I CLOSED. 24 OCT 14:31 2017 UNTIL 31 DEC
    23:00 2017. CREATED: 24 OCT 14:31 2017

LFPB A4691/17 PARKING AREA J EAST PART CLOSED. 24 OCT 14:33 2017
    UNTIL 31 DEC 23:00 2017. CREATED: 24 OCT 14:33 2017

LFPB A4692/17 TWY W15 CLOSED. 24 OCT 14:34 2017 UNTIL 31 DEC
    23:00 2017. CREATED: 24 OCT 14:34 2017

LFPB A4693/17 ACFT STAND H1 CLOSED. 24 OCT 14:34 2017 UNTIL 31
    DEC 23:00 2017. CREATED: 24 OCT 14:35 2017

LFPB A5121/17 TRIGGER NOTAM - PERM AIP AIRAC AMDT 01/18 WEF 04
    JAN 2018. MODIFICATIONS STAR RWY 07 RNAV MATIX MOPIL RENSA
    AND STAR RWY25-27 RNAV MATIX MOPIL RENSA PROCEDURES SETTING
    UP OF XERAM HOLDING PATTERN MODIFICATIONS STAR RWY07 RNAV
    PEXIR VELOL AND STAR RWY25-27 RNAV PEXIR VELOL PROCEDURES
    SETTING UP OF BIBAX AND LUKIP HOLDING PATTERNS. 04 JAN 00:00
    2018 UNTIL 17 JAN 23:59 2018. CREATED: 23 NOV 00:04 2017

LFPB A5447/17 HLDG PATTERNS LUKIP AND BIBAX, AMDT AIP AIRAC 01/18,
    PARTS AD 2 LFPG DATA STAR RWY08L-RNAV CODE 04 AD 2 LFPG DATA
    STAR RWY08R-RNAV CODE 04 AD 2 LFPG DATA STAR RWY09L-RNAV
    CODE 04 AD 2 LFPG DATA STAR RWY09R-RNAV CODE 04 AD 2 LFPG
    DATA STAR RWY26L-RNAV CODE 04 AD 2 LFPG DATA STAR RWY26R-RNAV
    CODE 04 AD 2 LFPG DATA STAR RWY27L-RNAV CODE 04 AD 2 LFPG
    DATA STAR RWY27R-RNAV CODE 04 : . HLDG PATTERN LUKIP : READ''DIRECTION
    MAG 096DEG-DIRECTION TRUE 096,4DEG'' INSTEAD OF ''DIRECTION
    MAG 141DEG-DIRECTION TRUE 141,4DEG'' . HLDG PATTERN BIBAX
    : READ ''DIRECTION MAG 141DEG-DIRECTION TRUE 141,4DEG'' INSTEAD
    OF ''DIRECTION MAG 096DEG -DIRECTION TRUE 096,4DEG ''. 04
    JAN 00:00 2018 UNTIL PERM. CREATED: 14 DEC 14:03 2017

LFPB P1744/17 CRANE ERECTED - RDL090/0.8NM ARP LFPB: PSN: 485810N
    0022745E ELEV: 263FT DAY MARKED AND NIGHT LIGHTED. 20 OCT
    12:36 2017 UNTIL 31 JAN 17:00 2018. CREATED: 20 OCT 12:36
    2017

LFPB V1149/17 [US DOD PROCEDURAL NOTAM] INSTRUMENT APPROACH PROCEDURE
    AMENDMENT RNAV (GNSS) RWY 07. LPV DA** (REQUIRING MISSED
    APPROACH CLIMB GRADIENT OF 304FT/NM) NOT AUTHORIZED. LPV
    DA* INCREASE MINIMA TO READ: CAT A 655/1800M 500(500-1800M),
    CAT B 670/1900M 515(500-1900M), CAT C 675/1900M 520(500-1900M),
    CAT D 685/2000M 530(500-2000M). AMEND *ALS INOP NOTE TO READ:
    *WHEN ALS INOP, INCREASE CAT A VIS TO 2300M AND CAT BCD VIS
    TO 2400M (RVR NA). 23 OCT 19:36 2017 UNTIL 31 JAN 17:00 2018.
    CREATED: 23 OCT 19:36 2017

LFPB V1300/17 [US DOD PROCEDURAL NOTAM] STANDARD INSTRUMENT ARRIVAL
    (STAR) AMENDMENT RNAV1 STAR RWY 08L/R, 09 L/R NORTH AND WEST.
    JET AIRCRAFT USE ONLY. 07 DEC 18:40 2017 UNTIL 01 FEB 10:00
    2018. CREATED: 07 DEC 18:40 2017

---------------------------------------------------------------------------